Time;durP1;ratioP1;P1;durP2;ratioP2;P2;SDS_P1;SDS_P2;PMS_P1;PMS_P2;Temp;Humidity;BMP_temperature;BMP_pressure;BME280_temperature;BME280_humidity;BME280_pressure;Samples;Min_cycle;Max_cycle;Signal;HPM_P1;HPM_P2
2022/03/11 00:01:13;;;;;;;89.22;7.65;;;24.40;21.50;;;;;;5041104;28;20087;-62
2022/03/11 00:03:40;;;;;;;82.03;8.50;;;24.30;21.60;;;;;;5041639;28;20522;-66
2022/03/11 00:06:06;;;;;;;77.18;8.40;;;24.30;21.70;;;;;;5040246;28;20111;-66
2022/03/11 00:08:32;;;;;;;108.47;11.10;;;24.20;21.80;;;;;;5040884;28;20437;-62
2022/03/11 00:10:59;;;;;;;99.97;10.18;;;24.20;22.00;;;;;;5060050;28;20081;-65
2022/03/11 00:13:25;;;;;;;96.47;9.40;;;24.10;21.90;;;;;;5041500;28;20116;-65
2022/03/11 00:15:52;;;;;;;144.85;12.15;;;23.90;21.90;;;;;;5038257;28;20312;-62
2022/03/11 00:18:19;;;;;;;150.43;13.18;;;23.80;21.60;;;;;;5049038;28;20077;-65
2022/03/11 00:20:45;;;;;;;101.65;10.05;;;23.60;21.00;;;;;;5058576;28;20069;-63
2022/03/11 00:23:11;;;;;;;109.45;10.45;;;23.60;20.90;;;;;;5038406;28;20423;-63
2022/03/11 00:25:38;;;;;;;141.48;10.85;;;23.60;21.30;;;;;;5038917;28;20214;-64
2022/03/11 00:28:04;;;;;;;89.50;9.45;;;23.60;21.20;;;;;;5045946;28;20084;-62
2022/03/11 00:30:31;;;;;;;137.20;11.20;;;23.30;20.90;;;;;;5042052;28;20088;-62
2022/03/11 00:32:57;;;;;;;152.98;12.05;;;23.20;20.70;;;;;;5042743;28;20545;-61
2022/03/11 00:35:24;;;;;;;181.82;14.43;;;23.20;21.00;;;;;;5019863;28;20092;-59
2022/03/11 00:37:50;;;;;;;105.80;10.80;;;22.90;20.20;;;;;;5042141;28;20069;-61
2022/03/11 00:40:17;;;;;;;111.22;10.57;;;22.80;20.30;;;;;;5021377;28;20078;-63
2022/03/11 00:42:43;;;;;;;120.00;10.48;;;22.60;20.50;;;;;;5040777;28;20108;-61
2022/03/11 00:45:10;;;;;;;129.85;11.07;;;22.60;20.80;;;;;;5045447;28;20466;-62
2022/03/11 00:47:37;;;;;;;105.07;10.48;;;22.40;20.90;;;;;;5019493;28;20065;-63
2022/03/11 00:50:04;;;;;;;177.98;13.73;;;22.40;21.20;;;;;;5018924;28;20078;-66
2022/03/11 00:52:31;;;;;;;120.75;11.25;;;22.30;21.40;;;;;;5040421;28;20151;-62
2022/03/11 00:54:57;;;;;;;113.72;11.15;;;22.20;21.30;;;;;;5043609;28;20093;-62
2022/03/11 00:57:23;;;;;;;123.30;13.05;;;22.10;21.30;;;;;;5042406;28;20084;-61
2022/03/11 00:59:50;;;;;;;129.80;12.55;;;22.00;20.80;;;;;;5040927;28;20555;-58
2022/03/11 01:02:17;;;;;;;150.98;13.60;;;22.00;20.90;;;;;;5060521;28;20505;-65
2022/03/11 01:04:43;;;;;;;141.38;15.13;;;21.90;21.00;;;;;;5059297;28;20280;-62
2022/03/11 01:07:10;;;;;;;189.73;18.13;;;21.90;21.00;;;;;;5032153;28;20103;-66
2022/03/11 01:09:36;;;;;;;150.25;16.75;;;21.80;20.30;;;;;;5044226;28;20091;-66
2022/03/11 01:12:03;;;;;;;183.80;17.38;;;21.70;20.60;;;;;;5061718;28;20159;-60
2022/03/11 01:14:29;;;;;;;162.63;17.23;;;21.60;20.10;;;;;;5039838;28;20083;-64
2022/03/11 01:16:55;;;;;;;161.40;15.88;;;21.50;19.50;;;;;;5041372;28;20142;-58
2022/03/11 01:19:23;;;;;;;169.88;16.15;;;21.40;19.40;;;;;;5040920;28;20077;-62
2022/03/11 01:21:50;;;;;;;155.38;16.00;;;21.30;20.00;;;;;;5058591;28;20069;-63
2022/03/11 01:24:16;;;;;;;182.70;16.42;;;21.30;19.30;;;;;;5040948;28;20119;-61
2022/03/11 01:26:42;;;;;;;158.18;17.52;;;21.20;19.00;;;;;;5040451;28;20077;-60
2022/03/11 01:29:09;;;;;;;168.05;17.73;;;21.10;19.30;;;;;;5042160;28;20100;-65
2022/03/11 01:31:35;;;;;;;143.15;15.68;;;21.00;19.70;;;;;;5036919;28;20480;-65
2022/03/11 01:34:01;;;;;;;144.38;14.27;;;21.00;19.60;;;;;;5039149;28;20083;-61
2022/03/11 01:36:28;;;;;;;140.43;13.73;;;20.80;19.40;;;;;;5044940;28;20080;-61
2022/03/11 01:38:56;;;;;;;119.43;13.73;;;20.80;19.50;;;;;;5042578;28;20085;-62
2022/03/11 01:41:23;;;;;;;123.60;12.98;;;20.70;19.40;;;;;;5047064;28;20081;-59
2022/03/11 01:44:02;;;;;;;109.80;10.85;;;20.60;19.70;;;;;;5045982;28;20077;-60
2022/03/11 01:46:29;;;;;;;77.18;9.15;;;20.50;19.50;;;;;;5044280;28;20570;-55
2022/03/11 01:48:57;;;;;;;108.43;10.18;;;20.50;20.00;;;;;;5062468;28;20151;-60
2022/03/11 01:51:24;;;;;;;100.32;9.55;;;20.40;19.70;;;;;;5060978;28;20079;-60
2022/03/11 01:53:51;;;;;;;78.10;7.95;;;20.30;19.70;;;;;;5042361;28;20108;-61
2022/03/11 01:56:18;;;;;;;87.07;8.50;;;20.20;19.80;;;;;;5044847;28;20168;-62
2022/03/11 01:58:49;;;;;;;77.95;7.68;;;20.20;19.70;;;;;;5046481;28;20104;-61
2022/03/11 02:01:16;;;;;;;74.03;7.70;;;20.10;19.50;;;;;;5045588;28;20117;-67
2022/03/11 02:03:43;;;;;;;73.22;7.53;;;19.90;19.50;;;;;;5042389;28;20427;-61
2022/03/11 02:06:13;;;;;;;51.03;6.57;;;19.80;18.80;;;;;;5042142;28;20086;-62
2022/03/11 02:08:40;;;;;;;74.90;6.57;;;19.70;18.50;;;;;;5045207;28;20092;-60
2022/03/11 02:11:07;;;;;;;45.92;4.35;;;19.70;18.40;;;;;;5048212;28;20077;-61
2022/03/11 02:13:46;;;;;;;63.97;6.43;;;19.60;17.70;;;;;;5043644;28;20077;-60
2022/03/11 02:16:23;;;;;;;59.58;4.88;;;19.50;17.40;;;;;;5061136;28;20085;-64
2022/03/11 02:18:50;;;;;;;80.53;6.18;;;19.50;17.30;;;;;;5041531;28;20084;-63
2022/03/11 02:21:20;;;;;;;61.35;4.88;;;19.40;17.60;;;;;;5044771;28;20081;-65
2022/03/11 02:23:51;;;;;;;45.65;4.60;;;19.30;17.80;;;;;;5042819;28;20074;-64
2022/03/11 02:26:19;;;;;;;46.80;5.78;;;19.30;17.70;;;;;;5041602;28;20101;-68
2022/03/11 02:28:47;;;;;;;38.30;4.30;;;19.10;17.50;;;;;;5064428;28;20069;-61
2022/03/11 02:31:13;;;;;;;50.53;4.63;;;19.10;17.70;;;;;;5021318;28;20571;-68
2022/03/11 02:33:40;;;;;;;50.30;5.05;;;19.00;17.70;;;;;;5056045;28;20077;-66
2022/03/11 02:36:07;;;;;;;49.33;5.25;;;19.00;18.00;;;;;;5021240;28;20081;-64
2022/03/11 02:38:34;;;;;;;46.92;4.90;;;18.90;18.00;;;;;;5061272;28;20161;-65
2022/03/11 02:41:01;;;;;;;41.33;5.38;;;18.80;18.40;;;;;;5062246;28;21456;-66
2022/03/11 02:43:28;;;;;;;40.33;4.40;;;18.80;18.70;;;;;;5038599;28;20074;-68
2022/03/11 02:45:54;;;;;;;42.35;4.30;;;18.70;19.00;;;;;;5028135;28;20539;-66
2022/03/11 02:48:21;;;;;;;53.13;5.45;;;18.70;19.40;;;;;;5041109;28;20073;-67
2022/03/11 02:50:47;;;;;;;46.28;4.13;;;18.60;19.60;;;;;;5059024;28;20061;-69
2022/03/11 02:53:14;;;;;;;59.40;5.35;;;18.50;20.10;;;;;;5059447;28;20198;-68
2022/03/11 02:55:41;;;;;;;39.95;4.80;;;18.30;20.30;;;;;;5041540;28;20546;-64
2022/03/11 02:58:07;;;;;;;38.13;4.25;;;18.20;20.50;;;;;;5063056;28;20442;-66
2022/03/11 03:00:33;;;;;;;48.58;5.25;;;18.20;20.70;;;;;;5024911;28;20584;-65
2022/03/11 03:03:00;;;;;;;43.17;4.90;;;18.10;20.80;;;;;;5041844;28;20081;-66
2022/03/11 03:05:26;;;;;;;;;;;18.00;21.00;;;;;;5015132;28;20097;-67
2022/03/11 03:07:52;;;;;;;49.38;5.72;;;17.90;21.10;;;;;;5022894;28;19961;-64
2022/03/11 03:10:19;;;;;;;56.75;4.88;;;17.80;21.20;;;;;;5032058;28;20092;-68
2022/03/11 03:12:45;;;;;;;47.53;5.75;;;17.70;21.30;;;;;;5040995;28;20603;-64
2022/03/11 03:15:11;;;;;;;;;;;17.60;21.40;;;;;;5041345;28;20084;-67
2022/03/11 03:17:37;;;;;;;47.00;5.35;;;17.60;21.80;;;;;;5039434;28;20435;-66
2022/03/11 03:20:05;;;;;;;44.05;5.10;;;17.50;22.00;;;;;;5039970;28;20439;-67
2022/03/11 03:22:32;;;;;;;55.95;5.05;;;17.40;22.10;;;;;;5040234;28;20073;-65
2022/03/11 03:24:58;;;;;;;50.55;5.15;;;17.30;21.90;;;;;;5058300;28;20089;-66
2022/03/11 03:27:24;;;;;;;;;;;17.30;22.10;;;;;;5037743;28;20546;-64
2022/03/11 03:29:52;;;;;;;34.63;4.40;;;17.10;22.10;;;;;;5063377;28;19957;-64
2022/03/11 03:32:18;;;;;;;42.00;4.78;;;17.10;21.90;;;;;;5041421;28;20065;-67
2022/03/11 03:34:45;;;;;;;42.83;5.13;;;17.00;21.90;;;;;;5024571;28;20554;-65
2022/03/11 03:37:12;;;;;;;55.42;5.47;;;16.90;22.10;;;;;;5058486;28;20118;-66
2022/03/11 03:39:41;;;;;;;52.13;5.50;;;16.80;22.10;;;;;;5044730;28;20069;-66
2022/03/11 03:42:08;;;;;;;42.40;5.03;;;16.80;22.40;;;;;;5041106;28;20077;-65
2022/03/11 03:44:35;;;;;;;32.47;3.88;;;16.70;22.40;;;;;;5039304;28;20090;-66
2022/03/11 03:47:01;;;;;;;;;;;16.60;22.30;;;;;;5054262;28;20073;-67
2022/03/11 03:49:30;;;;;;;46.70;5.30;;;16.50;22.40;;;;;;5030887;28;20034;-62
2022/03/11 03:51:56;;;;;;;39.22;3.90;;;16.50;22.70;;;;;;5042554;28;20069;-63
2022/03/11 03:54:22;;;;;;;;;;;16.40;22.90;;;;;;5039389;28;20126;-64
2022/03/11 03:56:49;;;;;;;39.25;4.00;;;16.40;22.80;;;;;;5027298;28;20052;-64
2022/03/11 03:59:15;;;;;;;37.97;3.75;;;16.30;22.30;;;;;;5013688;28;20527;-64
2022/03/11 04:01:44;;;;;;;48.00;4.35;;;16.30;22.00;;;;;;5038296;28;20094;-65
2022/03/11 04:04:11;;;;;;;51.35;4.50;;;16.20;21.20;;;;;;5022713;28;20168;-64
2022/03/11 04:06:39;;;;;;;39.55;4.10;;;16.20;21.00;;;;;;5042437;28;20226;-64
2022/03/11 04:09:07;;;;;;;35.65;3.78;;;16.30;21.20;;;;;;5039294;28;20130;-66
2022/03/11 04:11:34;;;;;;;33.38;4.07;;;16.20;21.10;;;;;;5039191;28;20112;-65
2022/03/11 04:14:01;;;;;;;42.22;4.22;;;16.10;21.40;;;;;;5023469;28;20554;-65
2022/03/11 04:16:28;;;;;;;47.22;3.42;;;16.10;22.00;;;;;;5027567;28;20077;-67
2022/03/11 04:18:54;;;;;;;33.58;4.18;;;16.00;22.00;;;;;;5054349;28;20143;-66
2022/03/11 04:21:21;;;;;;;23.38;3.58;;;15.90;22.00;;;;;;5043486;28;20611;-62
2022/03/11 04:23:50;;;;;;;28.33;3.35;;;15.80;22.00;;;;;;5043385;28;20082;-66
2022/03/11 04:26:17;;;;;;;33.22;3.28;;;15.80;21.60;;;;;;5040211;28;20089;-65
2022/03/11 04:28:44;;;;;;;19.60;3.55;;;15.80;21.20;;;;;;5043809;28;20073;-65
2022/03/11 04:31:11;;;;;;;19.75;3.28;;;15.80;20.70;;;;;;5018516;28;20138;-66
2022/03/11 04:33:39;;;;;;;28.75;3.10;;;15.80;20.70;;;;;;5039881;28;20554;-66
2022/03/11 04:36:06;;;;;;;16.30;2.38;;;15.80;20.50;;;;;;5040804;28;20438;-64
2022/03/11 04:38:33;;;;;;;19.80;2.60;;;15.90;19.80;;;;;;5040801;28;20082;-67
2022/03/11 04:41:00;;;;;;;19.15;2.50;;;16.00;19.20;;;;;;5037667;28;20077;-66
2022/03/11 04:43:27;;;;;;;22.08;2.20;;;16.10;18.80;;;;;;5057534;28;20814;-65
2022/03/11 04:45:54;;;;;;;20.95;1.95;;;16.10;18.60;;;;;;5059290;28;20470;-63
2022/03/11 04:48:20;;;;;;;31.17;2.78;;;16.10;19.20;;;;;;5021895;28;20073;-64
2022/03/11 04:50:47;;;;;;;;;;;16.10;19.60;;;;;;5058417;28;20077;-65
2022/03/11 04:53:13;;;;;;;22.45;2.45;;;16.10;19.60;;;;;;5038359;28;20429;-65
2022/03/11 04:55:39;;;;;;;23.20;3.25;;;16.10;19.30;;;;;;5054496;28;20466;-66
2022/03/11 04:58:05;;;;;;;;;;;16.10;18.90;;;;;;5039735;28;20073;-68
2022/03/11 05:00:32;;;;;;;30.58;2.72;;;16.20;18.90;;;;;;5055526;28;19964;-67
2022/03/11 05:02:58;;;;;;;23.38;2.28;;;16.20;18.80;;;;;;5042342;28;20077;-63
2022/03/11 05:05:25;;;;;;;24.98;1.98;;;16.20;18.50;;;;;;5039539;28;20097;-66
2022/03/11 05:07:52;;;;;;;18.25;1.95;;;16.20;18.60;;;;;;5042428;28;20442;-67
2022/03/11 05:10:18;;;;;;;41.25;2.47;;;16.20;18.80;;;;;;5043865;28;20093;-66
2022/03/11 05:12:44;;;;;;;;;;;16.10;18.30;;;;;;5063551;28;20108;-65
2022/03/11 05:15:12;;;;;;;17.10;1.98;;;16.10;18.20;;;;;;5065263;28;19987;-65
2022/03/11 05:17:38;;;;;;;15.63;1.70;;;16.20;17.90;;;;;;5044614;28;20073;-65
2022/03/11 05:20:05;;;;;;;;;;;16.20;17.90;;;;;;5045997;28;20168;-67
2022/03/11 05:22:32;;;;;;;19.65;2.15;;;16.20;18.00;;;;;;5044074;28;20409;-65
2022/03/11 05:24:59;;;;;;;12.95;1.70;;;16.20;18.00;;;;;;5044422;28;20097;-65
2022/03/11 05:27:25;;;;;;;11.57;1.80;;;16.20;18.10;;;;;;5047222;28;20124;-66
2022/03/11 05:29:52;;;;;;;13.27;2.03;;;16.10;18.20;;;;;;5065640;28;21099;-65
2022/03/11 05:32:20;;;;;;;;;;;16.10;18.50;;;;;;5043921;28;20069;-65
2022/03/11 05:34:48;;;;;;;17.85;1.90;;;16.00;18.60;;;;;;5047572;28;19963;-65
2022/03/11 05:37:15;;;;;;;24.00;2.58;;;16.00;19.00;;;;;;5044757;28;21133;-65
2022/03/11 05:39:42;;;;;;;8.00;2.00;;;15.90;19.10;;;;;;5045284;28;20183;-66
2022/03/11 05:42:11;;;;;;;13.52;1.67;;;15.90;18.90;;;;;;5043690;28;20069;-66
2022/03/11 05:44:38;;;;;;;15.23;1.80;;;15.90;18.60;;;;;;5045709;28;20510;-64
2022/03/11 05:47:04;;;;;;;;;;;15.90;18.20;;;;;;5060153;28;20519;-64
2022/03/11 05:49:30;;;;;;;7.20;2.13;;;15.90;17.80;;;;;;5046817;28;19971;-64
2022/03/11 05:51:56;;;;;;;;;;;16.00;17.80;;;;;;5044733;28;20112;-66
2022/03/11 05:54:23;;;;;;;14.85;1.98;;;16.00;17.80;;;;;;5043050;28;20391;-66
2022/03/11 05:56:54;;;;;;;;;;;16.00;17.80;;;;;;5046382;28;20081;-67
2022/03/11 05:59:22;;;;;;;13.82;1.88;;;15.90;17.60;;;;;;5045554;28;19957;-66
2022/03/11 06:01:48;;;;;;;8.75;1.58;;;15.90;17.60;;;;;;5056528;28;20068;-66
2022/03/11 06:04:14;;;;;;;;;;;15.90;17.80;;;;;;5024701;28;20100;-65
2022/03/11 06:06:41;;;;;;;18.15;1.88;;;15.90;18.00;;;;;;5043634;28;20403;-66
2022/03/11 06:09:08;;;;;;;8.68;1.45;;;15.80;18.20;;;;;;5041139;28;20105;-62
2022/03/11 06:11:35;;;;;;;10.65;1.88;;;15.80;18.50;;;;;;5039392;28;20144;-67
2022/03/11 06:14:02;;;;;;;13.77;1.60;;;15.70;18.80;;;;;;5040826;28;20087;-65
2022/03/11 06:16:28;;;;;;;12.55;1.88;;;15.70;19.10;;;;;;5042776;28;21007;-66
2022/03/11 06:18:55;;;;;;;13.93;1.83;;;15.60;19.40;;;;;;5042021;28;20081;-65
2022/03/11 06:21:21;;;;;;;;;;;15.50;19.50;;;;;;5060152;28;20073;-65
2022/03/11 06:23:47;;;;;;;16.23;1.90;;;15.40;19.60;;;;;;5038710;28;20066;-66
2022/03/11 06:26:13;;;;;;;;;;;15.30;19.70;;;;;;5033649;28;20131;-65
2022/03/11 06:28:40;;;;;;;12.60;2.00;;;15.20;20.40;;;;;;5042227;28;19957;-65
2022/03/11 06:31:08;;;;;;;;;;;15.20;20.00;;;;;;5039921;28;20077;-65
2022/03/11 06:33:34;;;;;;;14.07;1.98;;;15.10;20.30;;;;;;5057794;28;19963;-66
2022/03/11 06:36:01;;;;;;;20.48;2.05;;;15.00;20.60;;;;;;5058556;28;20559;-67
2022/03/11 06:38:27;;;;;;;;;;;14.90;20.90;;;;;;5040285;28;20131;-69
2022/03/11 06:40:54;;;;;;;17.05;2.40;;;14.80;21.20;;;;;;5039850;28;19957;-64
2022/03/11 06:43:21;;;;;;;18.27;2.65;;;14.80;21.50;;;;;;5039030;28;20104;-66
2022/03/11 06:45:47;;;;;;;26.67;3.03;;;14.70;21.70;;;;;;5041666;28;20093;-66
2022/03/11 06:48:14;;;;;;;;;;;14.60;22.00;;;;;;5041615;28;20144;-65
2022/03/11 06:50:41;;;;;;;15.75;2.65;;;14.50;22.10;;;;;;5039933;28;20408;-65
2022/03/11 06:53:07;;;;;;;14.60;2.13;;;14.40;22.30;;;;;;5035455;28;20084;-63
2022/03/11 06:55:34;;;;;;;26.92;3.08;;;14.30;22.60;;;;;;5025484;28;20477;-65
2022/03/11 06:58:00;;;;;;;27.10;2.90;;;14.20;22.60;;;;;;5057089;28;20482;-64
2022/03/11 07:00:26;;;;;;;;;;;14.20;22.70;;;;;;5038948;28;20139;-65
2022/03/11 07:02:53;;;;;;;25.17;3.85;;;14.10;22.90;;;;;;5055902;28;19961;-63
2022/03/11 07:05:19;;;;;;;19.58;3.95;;;14.10;23.30;;;;;;5056225;28;20143;-64
2022/03/11 07:07:46;;;;;;;23.50;2.55;;;14.10;23.10;;;;;;5042574;28;20074;-65
2022/03/11 07:10:12;;;;;;;;;;;14.00;23.00;;;;;;5057790;28;20542;-64
2022/03/11 07:12:39;;;;;;;11.43;2.60;;;13.90;22.70;;;;;;5041264;28;20330;-65
2022/03/11 07:15:06;;;;;;;21.77;2.63;;;13.80;22.70;;;;;;5058985;28;20661;-64
2022/03/11 07:17:34;;;;;;;19.40;2.78;;;13.80;22.90;;;;;;5043043;28;20126;-63
2022/03/11 07:20:00;;;;;;;17.73;2.40;;;13.80;22.80;;;;;;5058325;28;20074;-64
2022/03/11 07:22:26;;;;;;;24.95;2.60;;;13.70;22.80;;;;;;5040371;28;20073;-63
2022/03/11 07:24:53;;;;;;;;;;;13.70;23.00;;;;;;5039488;28;20104;-63
2022/03/11 07:27:19;;;;;;;18.23;3.08;;;13.60;23.10;;;;;;5037487;28;19995;-66
2022/03/11 07:29:46;;;;;;;24.98;3.17;;;13.60;23.10;;;;;;5008748;28;20160;-64
2022/03/11 07:32:12;;;;;;;27.77;3.15;;;13.50;23.10;;;;;;5037028;28;20204;-64
2022/03/11 07:34:38;;;;;;;;;;;13.40;23.30;;;;;;5042171;28;20099;-66
2022/03/11 07:37:06;;;;;;;23.58;3.90;;;13.40;23.30;;;;;;5038945;28;19972;-63
2022/03/11 07:39:33;;;;;;;21.50;4.30;;;13.30;23.40;;;;;;5038426;28;20078;-66
2022/03/11 07:41:59;;;;;;;22.77;4.35;;;13.30;23.60;;;;;;5055732;28;20118;-65
2022/03/11 07:44:25;;;;;;;19.30;4.18;;;13.30;24.00;;;;;;5056406;28;20117;-65
2022/03/11 07:46:52;;;;;;;17.70;3.30;;;13.30;24.20;;;;;;5025402;28;20077;-65
2022/03/11 07:49:18;;;;;;;;;;;13.20;23.90;;;;;;5055556;28;20083;-65
2022/03/11 07:51:45;;;;;;;12.87;2.30;;;13.20;23.60;;;;;;5039339;28;19979;-64
2022/03/11 07:54:11;;;;;;;;;;;13.10;23.60;;;;;;5030299;28;20078;-65
2022/03/11 07:56:38;;;;;;;27.23;3.47;;;13.10;23.70;;;;;;5036503;28;19956;-66
2022/03/11 07:59:06;;;;;;;20.13;2.65;;;13.00;23.80;;;;;;5041911;28;20155;-66
2022/03/11 08:01:33;;;;;;;15.20;2.50;;;13.00;23.70;;;;;;5040309;28;20126;-65
2022/03/11 08:04:00;;;;;;;14.70;2.25;;;13.00;22.20;;;;;;5034703;28;20081;-65
2022/03/11 08:06:26;;;;;;;12.70;1.88;;;13.10;20.90;;;;;;5046234;28;20114;-68
2022/03/11 08:08:52;;;;;;;;;;;13.20;20.90;;;;;;5057971;28;20085;-63
2022/03/11 08:11:19;;;;;;;12.52;1.85;;;13.20;20.70;;;;;;5044426;28;19965;-62
2022/03/11 08:13:45;;;;;;;15.02;2.08;;;13.30;20.70;;;;;;5039046;28;20134;-64
2022/03/11 08:16:12;;;;;;;13.10;1.60;;;13.30;20.30;;;;;;5042799;28;20085;-67
2022/03/11 08:18:38;;;;;;;14.55;1.60;;;13.40;19.90;;;;;;5042106;28;20073;-64
2022/03/11 08:21:05;;;;;;;17.02;1.38;;;13.40;19.70;;;;;;5044037;28;20538;-63
2022/03/11 08:23:31;;;;;;;;;;;13.50;20.50;;;;;;5055522;28;21017;-64
2022/03/11 08:25:58;;;;;;;15.38;2.22;;;13.40;20.10;;;;;;5028657;28;19984;-64
2022/03/11 08:28:25;;;;;;;14.98;1.70;;;13.40;20.30;;;;;;5039979;28;20438;-66
2022/03/11 08:30:54;;;;;;;9.88;1.85;;;13.40;20.40;;;;;;5033542;28;20083;-64
2022/03/11 08:33:22;;;;;;;10.13;1.45;;;13.40;20.50;;;;;;5041290;28;20072;-63
2022/03/11 08:35:53;;;;;;;11.85;1.35;;;13.40;20.20;;;;;;5043681;28;20069;-63
2022/03/11 08:38:19;;;;;;;15.82;1.73;;;13.40;20.40;;;;;;5053679;28;20069;-62
2022/03/11 08:40:45;;;;;;;;;;;13.40;20.40;;;;;;5030882;28;20079;-66
2022/03/11 08:43:12;;;;;;;12.63;1.70;;;13.40;20.50;;;;;;5023986;28;19957;-64
2022/03/11 08:45:38;;;;;;;;;;;13.30;20.70;;;;;;5024636;28;20100;-67
2022/03/11 08:48:04;;;;;;;11.45;1.73;;;13.30;20.90;;;;;;5043061;28;19961;-67
2022/03/11 08:50:31;;;;;;;7.03;1.38;;;13.20;21.00;;;;;;5024549;28;20073;-66
2022/03/11 08:52:57;;;;;;;8.25;1.70;;;13.20;21.10;;;;;;5061041;28;20069;-66
2022/03/11 08:55:24;;;;;;;11.10;1.30;;;13.20;21.20;;;;;;5059372;28;20085;-64
2022/03/11 08:57:51;;;;;;;;;;;13.10;21.30;;;;;;5047009;28;20531;-63
2022/03/11 09:00:23;;;;;;;18.10;1.58;;;13.10;21.50;;;;;;5061714;28;20480;-65
2022/03/11 09:02:50;;;;;;;13.48;1.83;;;13.00;21.60;;;;;;5030611;28;20172;-63
2022/03/11 09:05:18;;;;;;;9.80;1.52;;;12.90;21.80;;;;;;5025379;28;20099;-64
2022/03/11 09:07:46;;;;;;;13.00;2.08;;;12.90;21.90;;;;;;5063496;28;20073;-64
2022/03/11 09:10:13;;;;;;;12.70;2.30;;;12.80;21.90;;;;;;5046177;28;20570;-64
2022/03/11 09:12:40;;;;;;;10.20;1.67;;;12.70;21.90;;;;;;5046466;28;20109;-64
2022/03/11 09:15:09;;;;;;;6.28;1.88;;;12.70;21.90;;;;;;5044643;28;20139;-65
2022/03/11 09:17:35;;;;;;;7.90;1.70;;;12.60;22.00;;;;;;5045138;28;20438;-65
2022/03/11 09:20:03;;;;;;;12.30;2.35;;;12.50;22.20;;;;;;5011069;28;20081;-66
2022/03/11 09:22:34;;;;;;;6.78;1.88;;;12.50;22.20;;;;;;5016975;28;20443;-65
2022/03/11 09:25:04;;;;;;;14.57;2.10;;;12.50;22.40;;;;;;5044414;28;20115;-65
2022/03/11 09:27:31;;;;;;;9.90;2.10;;;12.40;22.50;;;;;;5028131;28;20080;-64
2022/03/11 09:29:57;;;;;;;8.68;1.73;;;12.40;22.50;;;;;;5046985;28;20081;-67
2022/03/11 09:32:24;;;;;;;;;;;12.50;23.00;;;;;;5048335;28;20538;-64
2022/03/11 09:34:51;;;;;;;11.93;1.80;;;12.40;23.80;;;;;;5041752;28;19957;-65
2022/03/11 09:37:17;;;;;;;16.40;2.15;;;12.40;23.80;;;;;;5044070;28;20073;-65
2022/03/11 09:39:43;;;;;;;;;;;12.40;23.30;;;;;;5060464;28;20488;-66
2022/03/11 09:42:10;;;;;;;9.10;1.58;;;12.30;24.10;;;;;;5042869;28;20720;-64
2022/03/11 09:44:40;;;;;;;18.13;1.95;;;12.30;23.60;;;;;;5062722;28;20093;-65
2022/03/11 09:47:07;;;;;;;7.78;1.73;;;12.20;23.20;;;;;;5042325;28;20175;-66
2022/03/11 09:49:35;;;;;;;12.73;1.80;;;12.20;23.90;;;;;;5042665;28;20717;-63
2022/03/11 09:52:05;;;;;;;12.10;1.92;;;12.20;24.60;;;;;;5040935;28;20076;-63
2022/03/11 09:54:32;;;;;;;17.58;2.40;;;12.10;24.60;;;;;;5035451;28;20720;-64
2022/03/11 09:57:00;;;;;;;17.17;2.13;;;12.10;24.20;;;;;;5043800;28;20081;-65
2022/03/11 09:59:27;;;;;;;11.52;1.58;;;12.10;24.50;;;;;;5041157;28;20092;-64
2022/03/11 10:01:54;;;;;;;14.35;1.85;;;12.00;24.80;;;;;;5043990;28;20540;-64
2022/03/11 10:04:21;;;;;;;9.32;1.65;;;12.00;24.90;;;;;;5039850;28;20073;-61
2022/03/11 10:06:48;;;;;;;6.72;1.50;;;11.90;24.60;;;;;;5042904;28;20077;-66
2022/03/11 10:09:17;;;;;;;6.55;1.80;;;11.80;24.30;;;;;;5043068;28;20093;-65
2022/03/11 10:11:46;;;;;;;12.82;1.50;;;11.80;24.50;;;;;;5043419;28;20105;-61
2022/03/11 10:14:13;;;;;;;14.57;1.70;;;11.60;24.20;;;;;;5041280;28;20730;-67
2022/03/11 10:16:41;;;;;;;12.63;1.85;;;11.50;24.90;;;;;;5039979;28;20089;-67
2022/03/11 10:19:13;;;;;;;9.95;1.80;;;11.40;25.30;;;;;;5040376;28;20085;-65
2022/03/11 10:21:45;;;;;;;16.33;2.60;;;11.50;25.10;;;;;;5061925;28;20519;-65
2022/03/11 10:24:16;;;;;;;17.15;4.15;;;11.40;25.10;;;;;;5045671;28;20077;-64
2022/03/11 10:26:48;;;;;;;36.80;3.95;;;11.40;24.70;;;;;;5059967;28;20569;-62
2022/03/11 10:29:23;;;;;;;24.48;4.35;;;11.40;25.00;;;;;;5040440;28;20073;-65
2022/03/11 10:31:52;;;;;;;20.98;4.40;;;11.50;25.10;;;;;;5042082;28;20148;-62
2022/03/11 10:34:31;;;;;;;21.00;4.68;;;11.40;25.70;;;;;;5039534;28;20164;-63
2022/03/11 10:36:58;;;;;;;36.38;5.85;;;11.50;25.50;;;;;;5022589;28;20073;-64
2022/03/11 10:39:26;;;;;;;21.95;5.00;;;11.30;24.90;;;;;;5056688;28;20585;-64
2022/03/11 10:41:54;;;;;;;20.70;4.38;;;11.30;25.40;;;;;;5021010;28;20280;-65
2022/03/11 10:44:22;;;;;;;28.70;4.65;;;11.40;25.50;;;;;;5060503;28;20580;-61
2022/03/11 10:46:50;;;;;;;23.50;4.18;;;11.20;25.50;;;;;;5029511;28;20572;-65
2022/03/11 10:49:31;;;;;;;26.95;4.60;;;11.10;25.80;;;;;;5024104;28;20073;-63
2022/03/11 10:52:00;;;;;;;28.00;5.75;;;11.10;25.70;;;;;;5044115;28;20076;-61
2022/03/11 10:54:28;;;;;;;38.38;5.15;;;11.00;26.50;;;;;;5039497;28;21438;-64
2022/03/11 10:56:55;;;;;;;25.05;5.15;;;10.90;26.20;;;;;;5041031;28;20692;-64
2022/03/11 10:59:21;;;;;;;27.52;5.70;;;10.90;26.50;;;;;;5042774;28;20151;-65
2022/03/11 11:01:50;;;;;;;35.13;6.00;;;10.90;26.60;;;;;;5040481;28;20096;-63
2022/03/11 11:04:18;;;;;;;37.53;5.68;;;10.90;27.20;;;;;;5026532;28;20081;-65
2022/03/11 11:06:45;;;;;;;39.63;6.53;;;10.90;27.10;;;;;;5044472;28;20070;-64
2022/03/11 11:09:17;;;;;;;23.63;5.47;;;10.90;27.60;;;;;;5061401;28;20097;-65
2022/03/11 11:11:44;;;;;;;31.17;5.60;;;10.90;27.10;;;;;;5055947;28;20475;-65
2022/03/11 11:14:11;;;;;;;28.23;5.97;;;10.80;27.40;;;;;;5057334;28;20743;-61
2022/03/11 11:16:43;;;;;;;28.58;5.85;;;10.70;26.90;;;;;;5048439;28;20123;-63
2022/03/11 11:19:15;;;;;;;25.77;5.93;;;10.60;26.70;;;;;;5039955;28;20213;-62
2022/03/11 11:21:43;;;;;;;43.78;6.28;;;10.70;26.40;;;;;;5042775;28;20526;-64
2022/03/11 11:24:15;;;;;;;28.48;5.97;;;10.70;27.40;;;;;;5044971;28;20088;-64
2022/03/11 11:26:46;;;;;;;32.97;6.22;;;10.70;27.40;;;;;;5041821;28;20092;-65
2022/03/11 11:29:19;;;;;;;25.27;5.63;;;10.60;27.60;;;;;;5043787;28;20404;-65
2022/03/11 11:31:46;;;;;;;28.35;5.38;;;10.60;27.90;;;;;;5044939;28;20080;-65
2022/03/11 11:34:34;;;;;;;22.13;5.18;;;10.50;28.20;;;;;;5042299;28;20619;-66
2022/03/11 11:37:00;;;;;;;;;;;10.60;27.60;;;;;;5041721;28;20077;-66
2022/03/11 11:39:42;;;;;;;28.90;5.80;;;10.60;28.30;;;;;;5040945;28;20595;-64
2022/03/11 11:42:11;;;;;;;27.88;5.72;;;10.60;28.80;;;;;;5038203;28;20085;-64
2022/03/11 11:44:40;;;;;;;21.13;5.03;;;10.60;28.20;;;;;;5058767;28;20094;-64
2022/03/11 11:47:10;;;;;;;27.80;5.47;;;10.50;28.60;;;;;;5039031;28;20100;-62
2022/03/11 11:49:52;;;;;;;19.90;5.15;;;10.30;28.20;;;;;;5042609;28;20069;-65
2022/03/11 11:52:35;;;;;;;25.33;4.88;;;10.30;28.00;;;;;;5039406;28;20598;-67
2022/03/11 11:55:19;;;;;;;20.15;5.75;;;10.30;27.90;;;;;;5040698;28;20120;-62
2022/03/11 11:57:47;;;;;;;26.73;5.97;;;10.20;28.20;;;;;;5056441;28;20069;-62
2022/03/11 12:00:41;;;;;;;22.10;5.38;;;10.20;27.70;;;;;;5040575;28;20526;-63
2022/03/11 12:03:10;;;;;;;27.08;5.32;;;10.30;25.80;;;;;;5038756;28;20081;-65
2022/03/11 12:05:50;;;;;;;18.65;5.60;;;10.30;26.40;;;;;;5039255;28;20120;-66
2022/03/11 12:08:39;;;;;;;20.30;5.10;;;10.40;26.20;;;;;;5043182;28;20543;-66
2022/03/11 12:11:07;;;;;;;22.65;5.03;;;10.40;26.20;;;;;;5059010;28;20068;-61
2022/03/11 12:13:35;;;;;;;27.63;5.35;;;10.40;26.90;;;;;;5038871;28;20088;-61
2022/03/11 12:16:18;;;;;;;19.98;5.53;;;10.40;27.00;;;;;;5058549;28;20778;-64
2022/03/11 12:18:45;;;;;;;22.00;6.20;;;10.40;26.20;;;;;;5024832;28;20104;-64
2022/03/11 12:21:40;;;;;;;16.77;5.40;;;10.40;26.50;;;;;;5058111;28;20061;-63
2022/03/11 12:24:32;;;;;;;16.92;5.18;;;10.30;26.20;;;;;;5039300;28;20081;-65
2022/03/11 12:26:59;;;;;;;18.60;4.50;;;10.30;25.50;;;;;;5043997;28;20088;-63
2022/03/11 12:29:37;;;;;;;20.63;4.53;;;10.40;24.80;;;;;;5045128;28;20476;-60
2022/03/11 12:32:09;;;;;;;12.65;3.97;;;10.50;25.00;;;;;;5059013;28;20077;-62
2022/03/11 12:34:36;;;;;;;11.00;3.95;;;10.50;25.20;;;;;;5039395;28;20078;-63
2022/03/11 12:37:03;;;;;;;9.27;4.18;;;10.60;24.10;;;;;;5040339;28;20077;-63
2022/03/11 12:39:30;;;;;;;16.83;4.05;;;10.60;23.70;;;;;;5028871;28;20069;-62
2022/03/11 12:41:56;;;;;;;21.10;4.43;;;10.80;23.10;;;;;;5036977;28;20168;-61
2022/03/11 12:44:22;;;;;;;;;;;10.90;23.10;;;;;;5056901;28;20109;-64
2022/03/11 12:46:49;;;;;;;19.63;3.50;;;10.90;23.10;;;;;;5028554;28;19961;-64
2022/03/11 12:49:28;;;;;;;10.40;3.63;;;11.00;22.80;;;;;;5061155;28;20081;-64